Impacts TAF Board
For situational awareness. Not to be used for flight planning purposes.
IDs:

KSEA - Seattle-Tacoma Intl, WA, US

Issued at 1724 UTC 23 Jan 2019
Updated at 1743 UTC 23 Jan 2019
Potential Impact None Slight Moderate High
Time1729Z 23/18Z 23/19Z 23/20Z 23/21Z 23/22Z 23/23Z 24/00Z 24/01Z 24/02Z 24/03Z 24/04Z 24/05Z 24/06Z>>
Type OBS PRVL PRVL PRVL PRVL PRVL PRVL PRVL PRVL PRVL PRVL PRVL PRVL PRVL
VIS 2 3 3 >6 >6 >6 >6 >6 >6 >6 6 6 6 6
CIG 19 5 5 18 18 18 18 18 18 18 10 10 10 10
Cover OVC OVC OVC OVC OVC OVC OVC OVC OVC OVC OVC OVC OVC OVC
FltCat IFR IFR IFR MVFR MVFR MVFR MVFR MVFR MVFR MVFR MVFR MVFR MVFR MVFR
WX BR BR BR -- -- -- -- -- -- -- BR BR BR BR
WDir 350 330 330 340 340 340 340 340 340 340 150 150 150 150
WSpd 9 5 5 4 4 4 4 4 4 4 3 3 3 3
WGst -- -- -- -- -- -- -- -- -- -- -- -- -- --
Raw TAF
KSEA 231724Z 2318/2424 33005KT 3SM BR BKN005 OVC015
  FM232000 34004KT P6SM SCT007 OVC018
  FM240300 15003KT 6SM BR OVC010


Raw METAR
KSEA 231729Z 35009KT 2SM BR SCT005 OVC019 08/06 A3023 RMK AO2 SFC VIS 5 T00780061
KSEA 231653Z 33007KT 2SM BR BKN005 OVC013 08/07 A3019 RMK AO2 SFC VIS 3 RAE21 SLP232 P0003 T00830072
KSEA 231553Z 27005KT 2SM -RA BR BKN007 OVC012 09/08 A3014 RMK AO2 RAB40 SLP214 P0001 T00940078
KSEA 231509Z 24005KT 10SM OVC009 09/08 A3010 RMK AO2 T00940078
KSEA 231453Z 24008KT 10SM OVC010 10/07 A3009 RMK AO2 SLP197 60001 T01000072 53037

METAR Board
Radar Display
Forecast Discussion
For situational awareness. Not to be used for flight planning purposes.